Time;durP1;ratioP1;P1;durP2;ratioP2;P2;SDS_P1;SDS_P2;PMS_P1;PMS_P2;Temp;Humidity;BMP_temperature;BMP_pressure;BME280_temperature;BME280_humidity;BME280_pressure;Samples;Min_cycle;Max_cycle;Signal;HPM_P1;HPM_P2
2023/04/13 00:01:12;;;;;;;1.23;1.20;;;;;;;;;;5059348;28;20180;-56
2023/04/13 00:03:38;;;;;;;1.80;1.43;;;;;;;;;;5060474;28;20209;-55
2023/04/13 00:06:05;;;;;;;1.27;1.17;;;;;;;;;;5057537;28;20192;-56
2023/04/13 00:08:34;;;;;;;1.03;1.00;;;;;;;;;;5062697;28;20177;-55
2023/04/13 00:11:00;;;;;;;1.23;1.13;;;;;;;;;;5053753;28;20321;-55
2023/04/13 00:13:27;;;;;;;1.33;1.07;;;;;;;;;;5056447;28;20573;-55
2023/04/13 00:15:54;;;;;;;1.20;1.10;;;;;;;;;;5067985;28;20540;-56
2023/04/13 00:18:20;;;;;;;1.50;1.40;;;;;;;;;;5065241;28;20552;-55
2023/04/13 00:20:47;;;;;;;2.93;1.20;;;;;;;;;;5041312;28;20169;-55
2023/04/13 00:23:13;;;;;;;1.37;1.27;;;;;;;;;;5066142;28;20232;-55
2023/04/13 00:25:39;;;;;;;0.93;0.93;;;;;;;;;;5064702;28;20180;-55
2023/04/13 00:28:05;;;;;;;1.67;1.27;;;;;;;;;;5063220;28;20639;-55
2023/04/13 00:30:31;;;;;;;2.03;1.53;;;;;;;;;;5064129;28;20230;-55
2023/04/13 00:32:58;;;;;;;2.70;1.47;;;;;;;;;;5066730;28;20173;-56
2023/04/13 00:35:25;;;;;;;2.80;1.77;;;;;;;;;;5062986;28;20196;-55
2023/04/13 00:37:54;;;;;;;1.47;1.10;;;;;;;;;;5064223;28;20205;-55
2023/04/13 00:40:20;;;;;;;1.20;1.10;;;;;;;;;;5055166;28;20196;-55
2023/04/13 00:42:48;;;;;;;2.30;1.30;;;;;;;;;;5062577;28;20196;-56
2023/04/13 00:45:15;;;;;;;2.97;1.50;;;;;;;;;;5062180;28;20188;-56
2023/04/13 00:47:45;;;;;;;1.03;1.03;;;;;;;;;;5063871;28;20663;-56
2023/04/13 00:50:11;;;;;;;1.30;1.20;;;;;;;;;;5065947;28;20674;-56
2023/04/13 00:52:37;;;;;;;1.80;1.13;;;;;;;;;;5057313;28;20184;-56
2023/04/13 00:55:03;;;;;;;1.83;1.10;;;;;;;;;;5044662;28;20172;-55
2023/04/13 00:57:31;;;;;;;1.53;1.43;;;;;;;;;;5049080;28;20180;-55
2023/04/13 00:59:57;;;;;;;1.60;1.50;;;;;;;;;;5060830;28;20188;-55
2023/04/13 01:02:25;;;;;;;2.40;1.30;;;;;;;;;;5059225;28;20169;-55
2023/04/13 01:04:51;;;;;;;1.30;1.20;;;;;;;;;;5065978;28;20181;-56
2023/04/13 01:07:26;;;;;;;2.00;1.33;;;;;;;;;;5061864;28;20169;-55
2023/04/13 01:10:07;;;;;;;2.30;1.40;;;;;;;;;;5059627;28;20592;-56
2023/04/13 01:12:36;;;;;;;3.60;1.23;;;;;;;;;;5061503;28;20192;-55
2023/04/13 01:15:07;;;;;;;2.00;1.23;;;;;;;;;;5060203;28;20220;-56
2023/04/13 01:17:34;;;;;;;2.20;1.40;;;;;;;;;;5060435;28;20250;-55
2023/04/13 01:20:11;;;;;;;3.73;1.40;;;;;;;;;;5057620;28;20565;-55
2023/04/13 01:22:44;;;;;;;1.27;1.17;;;;;;;;;;5060708;28;20223;-55
2023/04/13 01:25:11;;;;;;;1.73;1.47;;;;;;;;;;5055753;28;20183;-55
2023/04/13 01:27:45;;;;;;;1.20;1.10;;;;;;;;;;5064599;28;20180;-55
2023/04/13 01:30:12;;;;;;;2.70;2.50;;;;;;;;;;5060621;28;20259;-56
2023/04/13 01:32:40;;;;;;;1.20;1.10;;;;;;;;;;5063902;28;20173;-56
2023/04/13 01:35:09;;;;;;;1.10;1.10;;;;;;;;;;5061881;28;20527;-56
2023/04/13 01:37:39;;;;;;;4.23;2.57;;;;;;;;;;5061164;28;20195;-55
2023/04/13 01:40:09;;;;;;;1.63;1.33;;;;;;;;;;5064379;28;20181;-55
2023/04/13 01:42:36;;;;;;;1.20;1.10;;;;;;;;;;5063412;28;20643;-56
2023/04/13 01:45:04;;;;;;;1.67;1.50;;;;;;;;;;5060446;28;21043;-56
2023/04/13 01:47:30;;;;;;;1.33;1.23;;;;;;;;;;5064658;28;20279;-56
2023/04/13 01:50:03;;;;;;;2.47;1.40;;;;;;;;;;5062460;28;20667;-56
2023/04/13 01:52:32;;;;;;;4.50;1.20;;;;;;;;;;5057288;28;20184;-56
2023/04/13 01:55:00;;;;;;;1.20;1.20;;;;;;;;;;5053329;28;20195;-56
2023/04/13 01:57:27;;;;;;;1.63;1.50;;;;;;;;;;5060075;28;20713;-55
2023/04/13 01:59:53;;;;;;;2.07;0.90;;;;;;;;;;5058547;28;20553;-55
2023/04/13 02:02:19;;;;;;;0.90;0.90;;;;;;;;;;5052525;28;20176;-55
2023/04/13 02:04:45;;;;;;;1.23;1.17;;;;;;;;;;5057169;28;20197;-55
2023/04/13 02:07:11;;;;;;;0.90;0.90;;;;;;;;;;5058353;28;20184;-55
2023/04/13 02:09:37;;;;;;;1.20;1.10;;;;;;;;;;5057796;28;20246;-56
2023/04/13 02:12:04;;;;;;;1.30;1.20;;;;;;;;;;5056501;28;21906;-56
2023/04/13 02:14:30;;;;;;;3.30;1.47;;;;;;;;;;5055935;28;20168;-55
2023/04/13 02:16:56;;;;;;;2.77;1.13;;;;;;;;;;5054411;28;20267;-55
2023/04/13 02:19:23;;;;;;;3.40;1.20;;;;;;;;;;5062624;28;20176;-55
2023/04/13 02:21:49;;;;;;;1.47;1.20;;;;;;;;;;5057764;28;20714;-55
2023/04/13 02:24:15;;;;;;;2.33;1.37;;;;;;;;;;5054183;28;20243;-58
2023/04/13 02:26:42;;;;;;;1.27;1.20;;;;;;;;;;5058071;28;20173;-55
2023/04/13 02:29:08;;;;;;;1.20;1.07;;;;;;;;;;5055495;28;20609;-55
2023/04/13 02:31:35;;;;;;;1.10;1.10;;;;;;;;;;5052943;28;20184;-55
2023/04/13 02:34:01;;;;;;;1.50;1.13;;;;;;;;;;5053171;28;20181;-54
2023/04/13 02:36:27;;;;;;;0.93;0.93;;;;;;;;;;5057427;28;20188;-55
2023/04/13 02:38:53;;;;;;;0.93;0.93;;;;;;;;;;5036695;28;20620;-55
2023/04/13 02:41:21;;;;;;;1.50;1.40;;;;;;;;;;5060203;28;20181;-55
2023/04/13 02:43:49;;;;;;;2.83;1.37;;;;;;;;;;5056007;28;20741;-55
2023/04/13 02:46:19;;;;;;;1.87;1.40;;;;;;;;;;5058107;28;21609;-56
2023/04/13 02:48:45;;;;;;;1.53;1.37;;;;;;;;;;5053892;28;20195;-55
2023/04/13 02:51:14;;;;;;;2.20;1.20;;;;;;;;;;5059265;28;20588;-55
2023/04/13 02:53:41;;;;;;;1.40;1.30;;;;;;;;;;5055954;28;20821;-55
2023/04/13 02:56:08;;;;;;;2.90;1.63;;;;;;;;;;5059514;28;20218;-56
2023/04/13 02:58:35;;;;;;;1.20;1.10;;;;;;;;;;5055372;28;20307;-55
2023/04/13 03:01:01;;;;;;;1.20;1.10;;;;;;;;;;5057876;28;20208;-55
2023/04/13 03:03:29;;;;;;;1.60;1.20;;;;;;;;;;5055844;28;20215;-55
2023/04/13 03:05:56;;;;;;;1.23;1.00;;;;;;;;;;5056921;28;20252;-56
2023/04/13 03:08:22;;;;;;;1.60;1.30;;;;;;;;;;5055501;28;20184;-56
2023/04/13 03:10:50;;;;;;;1.10;1.10;;;;;;;;;;5057348;28;20194;-56
2023/04/13 03:13:19;;;;;;;1.30;1.13;;;;;;;;;;5055449;28;20180;-55
2023/04/13 03:15:46;;;;;;;1.13;1.13;;;;;;;;;;5057458;28;20668;-55
2023/04/13 03:18:13;;;;;;;2.50;2.40;;;;;;;;;;5054182;28;20177;-55
2023/04/13 03:20:39;;;;;;;1.10;1.10;;;;;;;;;;5058614;28;20291;-55
2023/04/13 03:23:05;;;;;;;0.90;0.90;;;;;;;;;;5061141;28;20231;-55
2023/04/13 03:25:32;;;;;;;1.30;1.20;;;;;;;;;;5057154;28;20169;-55
2023/04/13 03:27:58;;;;;;;2.03;1.23;;;;;;;;;;5047973;28;20468;-55
2023/04/13 03:30:25;;;;;;;1.37;1.20;;;;;;;;;;5045667;28;20233;-55
2023/04/13 03:32:51;;;;;;;1.67;1.30;;;;;;;;;;5059906;28;20231;-55
2023/04/13 03:35:18;;;;;;;1.50;1.40;;;;;;;;;;5059187;28;20184;-55
2023/04/13 03:37:44;;;;;;;2.63;1.10;;;;;;;;;;5061340;28;20469;-55
2023/04/13 03:40:11;;;;;;;2.50;2.30;;;;;;;;;;5061755;28;20275;-55
2023/04/13 03:42:37;;;;;;;1.67;1.20;;;;;;;;;;5064490;28;20184;-55
2023/04/13 03:45:04;;;;;;;1.20;1.10;;;;;;;;;;5059985;28;20173;-55
2023/04/13 03:47:30;;;;;;;0.90;0.90;;;;;;;;;;5059665;28;20638;-55
2023/04/13 03:49:56;;;;;;;2.03;1.17;;;;;;;;;;5058662;28;20642;-56
2023/04/13 03:52:22;;;;;;;1.00;1.00;;;;;;;;;;5060291;28;20179;-55
2023/04/13 03:54:49;;;;;;;2.57;1.03;;;;;;;;;;5057879;28;20192;-55
2023/04/13 03:57:15;;;;;;;1.37;0.87;;;;;;;;;;5062327;28;20825;-56
2023/04/13 03:59:41;;;;;;;1.17;1.10;;;;;;;;;;5060444;28;20201;-56
2023/04/13 04:02:08;;;;;;;2.80;1.50;;;;;;;;;;5059763;28;20184;-55
2023/04/13 04:04:35;;;;;;;1.43;1.20;;;;;;;;;;5065364;28;20199;-55
2023/04/13 04:07:01;;;;;;;3.20;1.47;;;;;;;;;;5065942;28;20548;-56
2023/04/13 04:09:27;;;;;;;1.03;0.93;;;;;;;;;;5058648;28;20616;-56
2023/04/13 04:11:53;;;;;;;1.13;1.10;;;;;;;;;;5062425;28;20683;-56
2023/04/13 04:14:19;;;;;;;1.00;0.97;;;;;;;;;;5065241;28;20268;-56
2023/04/13 04:16:45;;;;;;;2.20;1.10;;;;;;;;;;5063900;28;20187;-55
2023/04/13 04:19:11;;;;;;;1.93;0.90;;;;;;;;;;5069700;28;20655;-56
2023/04/13 04:21:38;;;;;;;1.13;1.10;;;;;;;;;;5066252;28;20228;-56
2023/04/13 04:24:05;;;;;;;2.73;1.23;;;;;;;;;;5066727;28;20822;-55
2023/04/13 04:26:31;;;;;;;2.27;1.13;;;;;;;;;;5066216;28;20577;-55
2023/04/13 04:29:00;;;;;;;1.13;1.03;;;;;;;;;;5063763;28;20179;-55
2023/04/13 04:31:30;;;;;;;1.90;0.93;;;;;;;;;;5063437;28;20176;-56
2023/04/13 04:33:57;;;;;;;1.47;1.07;;;;;;;;;;5054338;28;20222;-56
2023/04/13 04:36:23;;;;;;;2.77;1.73;;;;;;;;;;5056311;28;20184;-56
2023/04/13 04:38:50;;;;;;;2.47;1.27;;;;;;;;;;5058213;28;20208;-55
2023/04/13 04:41:22;;;;;;;1.13;0.70;;;;;;;;;;5059108;28;20177;-55
2023/04/13 04:43:49;;;;;;;1.13;0.97;;;;;;;;;;5060775;28;20238;-55
2023/04/13 04:46:15;;;;;;;1.93;1.83;;;;;;;;;;5063780;28;20184;-55
2023/04/13 04:48:46;;;;;;;1.60;1.00;;;;;;;;;;5061590;28;20180;-55
2023/04/13 04:51:12;;;;;;;1.43;1.17;;;;;;;;;;5066547;28;20537;-55
2023/04/13 04:53:39;;;;;;;2.33;1.00;;;;;;;;;;5060323;28;20245;-56
2023/04/13 04:56:06;;;;;;;1.80;1.10;;;;;;;;;;5063173;28;20191;-56
2023/04/13 04:58:32;;;;;;;2.17;1.10;;;;;;;;;;5058885;28;20176;-56
2023/04/13 05:00:59;;;;;;;2.80;1.63;;;;;;;;;;5061429;28;20722;-56
2023/04/13 05:03:25;;;;;;;1.00;0.90;;;;;;;;;;5043342;28;20196;-56
2023/04/13 05:05:52;;;;;;;0.90;0.90;;;;;;;;;;5060993;28;20641;-56
2023/04/13 05:08:18;;;;;;;0.97;0.90;;;;;;;;;;5056893;28;20658;-56
2023/04/13 05:10:45;;;;;;;1.83;1.20;;;;;;;;;;5057439;28;20217;-56
2023/04/13 05:13:12;;;;;;;1.97;1.20;;;;;;;;;;5058437;28;20591;-56
2023/04/13 05:15:38;;;;;;;1.73;1.30;;;;;;;;;;5060673;28;20188;-56
2023/04/13 05:18:05;;;;;;;1.07;0.90;;;;;;;;;;5061218;28;20187;-56
2023/04/13 05:20:33;;;;;;;0.97;0.97;;;;;;;;;;5061036;28;20176;-55
2023/04/13 05:23:00;;;;;;;1.47;1.30;;;;;;;;;;5058087;28;20220;-56
2023/04/13 05:25:27;;;;;;;2.17;1.20;;;;;;;;;;5062492;28;20267;-56
2023/04/13 05:27:55;;;;;;;0.97;0.97;;;;;;;;;;5060730;28;20173;-56
2023/04/13 05:30:21;;;;;;;1.80;1.20;;;;;;;;;;5061677;28;20176;-56
2023/04/13 05:32:47;;;;;;;1.53;1.43;;;;;;;;;;5058488;28;20259;-56
2023/04/13 05:35:13;;;;;;;1.20;1.10;;;;;;;;;;5058829;28;20206;-56
2023/04/13 05:37:39;;;;;;;1.97;1.70;;;;;;;;;;5058218;28;20188;-56
2023/04/13 05:40:12;;;;;;;1.90;1.13;;;;;;;;;;5054253;28;20169;-56
2023/04/13 05:42:38;;;;;;;1.20;1.10;;;;;;;;;;5057006;28;20630;-56
2023/04/13 05:45:08;;;;;;;0.90;0.90;;;;;;;;;;5059441;28;20664;-56
2023/04/13 05:47:35;;;;;;;1.93;1.30;;;;;;;;;;5061472;28;20179;-56
2023/04/13 05:50:01;;;;;;;1.20;1.10;;;;;;;;;;5063361;28;20234;-56
2023/04/13 05:52:27;;;;;;;1.53;1.30;;;;;;;;;;5059378;28;20191;-56
2023/04/13 05:54:53;;;;;;;1.80;1.20;;;;;;;;;;5058715;28;20283;-57
2023/04/13 05:57:20;;;;;;;0.97;0.97;;;;;;;;;;5059120;28;20258;-56
2023/04/13 05:59:46;;;;;;;1.17;1.07;;;;;;;;;;5066444;28;20184;-56
2023/04/13 06:02:13;;;;;;;1.50;1.40;;;;;;;;;;5058237;28;20246;-56
2023/04/13 06:04:40;;;;;;;4.53;1.60;;;;;;;;;;5036668;28;20671;-56
2023/04/13 06:07:06;;;;;;;1.50;1.40;;;;;;;;;;5039982;28;20215;-56
2023/04/13 06:09:33;;;;;;;1.77;1.30;;;;;;;;;;5056526;28;20273;-56
2023/04/13 06:11:59;;;;;;;2.17;1.40;;;;;;;;;;5061038;28;20547;-56
2023/04/13 06:14:26;;;;;;;1.50;1.40;;;;;;;;;;5062713;28;20665;-56
2023/04/13 06:16:56;;;;;;;1.37;1.23;;;;;;;;;;5062388;28;20195;-56
2023/04/13 06:19:22;;;;;;;2.57;1.50;;;;;;;;;;5057645;28;20599;-56
2023/04/13 06:21:49;;;;;;;2.30;1.53;;;;;;;;;;5062032;28;20244;-56
2023/04/13 06:24:16;;;;;;;1.83;1.10;;;;;;;;;;5053345;28;20200;-56
2023/04/13 06:26:42;;;;;;;1.53;1.03;;;;;;;;;;5058723;28;20277;-57
2023/04/13 06:29:08;;;;;;;3.40;2.17;;;;;;;;;;5057153;28;20177;-56
2023/04/13 06:31:35;;;;;;;2.37;1.50;;;;;;;;;;5056114;28;20181;-56
2023/04/13 06:34:02;;;;;;;2.20;1.20;;;;;;;;;;5062967;28;20191;-56
2023/04/13 06:36:28;;;;;;;3.00;1.40;;;;;;;;;;5054571;28;20721;-56
2023/04/13 06:38:55;;;;;;;1.73;1.50;;;;;;;;;;5056477;28;20295;-56
2023/04/13 06:41:21;;;;;;;1.63;1.40;;;;;;;;;;5057525;28;20204;-57
2023/04/13 06:43:48;;;;;;;2.27;1.40;;;;;;;;;;5033585;28;20458;-57
2023/04/13 06:46:14;;;;;;;2.00;1.50;;;;;;;;;;5048513;28;20178;-56
2023/04/13 06:48:40;;;;;;;1.53;1.43;;;;;;;;;;5057468;28;20677;-56
2023/04/13 06:51:07;;;;;;;2.93;1.37;;;;;;;;;;5054783;28;20233;-56
2023/04/13 06:53:33;;;;;;;2.23;1.20;;;;;;;;;;5065008;28;20184;-56
2023/04/13 06:55:59;;;;;;;1.50;1.40;;;;;;;;;;5067630;28;20271;-56
2023/04/13 06:58:26;;;;;;;1.73;1.30;;;;;;;;;;5069115;28;20186;-56
2023/04/13 07:00:52;;;;;;;1.73;1.50;;;;;;;;;;5063729;28;20177;-57
2023/04/13 07:03:18;;;;;;;2.03;1.50;;;;;;;;;;5060778;28;20202;-56
2023/04/13 07:05:45;;;;;;;3.07;1.90;;;;;;;;;;5064000;28;20238;-56
2023/04/13 07:08:11;;;;;;;1.97;1.30;;;;;;;;;;5065179;28;20221;-56
2023/04/13 07:10:39;;;;;;;1.40;1.30;;;;;;;;;;5065914;28;20180;-56
2023/04/13 07:13:06;;;;;;;3.50;1.10;;;;;;;;;;5061603;28;20216;-56
2023/04/13 07:15:32;;;;;;;1.93;1.30;;;;;;;;;;5067396;28;20307;-56
2023/04/13 07:17:58;;;;;;;1.50;1.40;;;;;;;;;;5069969;28;20544;-55
2023/04/13 07:20:28;;;;;;;1.93;1.47;;;;;;;;;;5066761;28;20184;-56
2023/04/13 07:22:57;;;;;;;2.50;1.40;;;;;;;;;;5053492;28;20755;-55
2023/04/13 07:25:23;;;;;;;1.43;1.33;;;;;;;;;;5064819;28;20183;-55
2023/04/13 07:27:49;;;;;;;1.70;1.60;;;;;;;;;;5068221;28;20681;-57
2023/04/13 07:30:16;;;;;;;1.87;1.53;;;;;;;;;;5065792;28;20214;-56
2023/04/13 07:32:42;;;;;;;1.50;1.40;;;;;;;;;;5058398;28;20588;-56
2023/04/13 07:35:09;;;;;;;3.23;1.37;;;;;;;;;;5069958;28;20184;-56
2023/04/13 07:37:36;;;;;;;1.97;1.50;;;;;;;;;;5067723;28;20322;-56
2023/04/13 07:40:04;;;;;;;3.03;1.67;;;;;;;;;;5062755;28;20181;-56
2023/04/13 07:42:32;;;;;;;1.60;1.50;;;;;;;;;;5067004;28;20161;-58
2023/04/13 07:45:00;;;;;;;3.13;1.63;;;;;;;;;;5069822;28;20199;-54
2023/04/13 07:47:27;;;;;;;1.90;1.37;;;;;;;;;;5061796;28;20234;-54
2023/04/13 07:49:54;;;;;;;1.20;1.20;;;;;;;;;;5063695;28;20176;-55
2023/04/13 07:52:20;;;;;;;2.03;1.40;;;;;;;;;;5064272;28;20164;-55
2023/04/13 07:54:47;;;;;;;2.30;1.50;;;;;;;;;;5069458;28;20187;-56
2023/04/13 07:57:13;;;;;;;3.00;1.40;;;;;;;;;;5047866;28;20185;-56
2023/04/13 07:59:40;;;;;;;1.57;1.30;;;;;;;;;;5064410;28;20222;-55
2023/04/13 08:02:07;;;;;;;1.43;1.30;;;;;;;;;;5059725;28;21590;-55
2023/04/13 08:04:33;;;;;;;1.57;1.17;;;;;;;;;;5067845;28;20263;-56
2023/04/13 08:07:03;;;;;;;1.80;1.33;;;;;;;;;;5049843;28;20179;-56
2023/04/13 08:09:38;;;;;;;3.47;1.67;;;;;;;;;;5065867;28;20177;-56
2023/04/13 08:12:05;;;;;;;1.00;1.00;;;;;;;;;;5057228;28;20213;-56
2023/04/13 08:14:31;;;;;;;2.27;1.50;;;;;;;;;;5046853;28;20264;-56
2023/04/13 08:16:58;;;;;;;1.60;1.37;;;;;;;;;;5045895;28;20176;-55
2023/04/13 08:19:25;;;;;;;1.67;1.43;;;;;;;;;;5065817;28;20246;-56
2023/04/13 08:21:52;;;;;;;1.50;1.40;;;;;;;;;;5063787;28;20299;-56
2023/04/13 08:24:19;;;;;;;2.43;1.40;;;;;;;;;;5064020;28;20274;-56
2023/04/13 08:26:46;;;;;;;1.60;1.50;;;;;;;;;;5066345;28;20234;-56
2023/04/13 08:29:13;;;;;;;1.77;1.43;;;;;;;;;;5058046;28;20227;-56
2023/04/13 08:31:39;;;;;;;1.90;1.50;;;;;;;;;;5064964;28;20176;-56
2023/04/13 08:34:09;;;;;;;1.73;1.40;;;;;;;;;;5060993;28;20276;-56
2023/04/13 08:36:36;;;;;;;2.23;1.53;;;;;;;;;;5057480;28;20294;-56
2023/04/13 08:39:04;;;;;;;2.97;1.47;;;;;;;;;;5058906;28;20297;-56
2023/04/13 08:41:33;;;;;;;1.40;1.30;;;;;;;;;;5059573;28;20653;-55
2023/04/13 08:44:04;;;;;;;2.67;1.80;;;;;;;;;;5038334;28;20687;-56
2023/04/13 08:46:31;;;;;;;3.93;1.60;;;;;;;;;;5058469;28;20587;-56
2023/04/13 08:49:01;;;;;;;4.63;1.80;;;;;;;;;;5062368;28;20239;-55
2023/04/13 08:51:30;;;;;;;2.63;1.57;;;;;;;;;;5058647;28;20256;-56
2023/04/13 08:53:58;;;;;;;2.93;1.60;;;;;;;;;;5059655;28;20466;-58
2023/04/13 08:56:25;;;;;;;2.40;1.80;;;;;;;;;;5065904;28;20177;-56
2023/04/13 08:59:06;;;;;;;3.40;1.80;;;;;;;;;;5066443;28;20196;-56
2023/04/13 09:01:35;;;;;;;2.20;1.57;;;;;;;;;;5062756;28;20184;-56
2023/04/13 09:04:01;;;;;;;2.30;1.53;;;;;;;;;;5043219;28;20823;-56
2023/04/13 09:06:34;;;;;;;2.37;1.50;;;;;;;;;;5066491;28;20644;-56
2023/04/13 09:09:04;;;;;;;3.80;1.80;;;;;;;;;;5061207;28;20179;-55
2023/04/13 09:11:31;;;;;;;4.23;2.13;;;;;;;;;;5068607;28;20522;-56
2023/04/13 09:13:57;;;;;;;3.97;1.83;;;;;;;;;;5064143;28;20263;-56
2023/04/13 09:16:24;;;;;;;1.80;1.63;;;;;;;;;;5065542;28;20267;-56
2023/04/13 09:18:54;;;;;;;3.73;1.70;;;;;;;;;;5063983;28;20774;-56
2023/04/13 09:21:35;;;;;;;3.63;2.00;;;;;;;;;;5051442;28;20224;-56
2023/04/13 09:24:02;;;;;;;2.70;1.80;;;;;;;;;;5067226;28;20211;-56
2023/04/13 09:26:41;;;;;;;4.43;1.83;;;;;;;;;;5064997;28;20173;-55
2023/04/13 09:29:10;;;;;;;1.80;1.60;;;;;;;;;;5046859;28;20514;-55
2023/04/13 09:31:39;;;;;;;3.63;1.47;;;;;;;;;;5064733;28;20748;-56
2023/04/13 09:34:07;;;;;;;4.93;1.57;;;;;;;;;;5059694;28;20592;-55
2023/04/13 09:36:33;;;;;;;5.00;2.00;;;;;;;;;;5065584;28;20230;-56
2023/04/13 09:38:59;;;;;;;5.70;1.80;;;;;;;;;;5059228;28;20682;-56
2023/04/13 09:41:36;;;;;;;3.53;1.90;;;;;;;;;;5061697;28;20176;-57
2023/04/13 09:44:03;;;;;;;2.70;1.80;;;;;;;;;;5067166;28;20191;-56
2023/04/13 09:46:29;;;;;;;5.07;1.87;;;;;;;;;;5063178;28;20227;-56
2023/04/13 09:49:02;;;;;;;5.13;1.90;;;;;;;;;;5067304;28;20929;-57
2023/04/13 09:51:39;;;;;;;4.03;1.77;;;;;;;;;;5066956;28;20175;-57
2023/04/13 09:54:06;;;;;;;4.40;1.70;;;;;;;;;;5055071;28;20203;-57
2023/04/13 09:56:45;;;;;;;3.53;1.97;;;;;;;;;;5065736;28;20176;-57
2023/04/13 09:59:12;;;;;;;3.17;1.60;;;;;;;;;;5068630;28;20662;-56
2023/04/13 10:01:40;;;;;;;4.70;1.70;;;;;;;;;;5061390;28;20234;-57
2023/04/13 10:04:08;;;;;;;4.30;1.73;;;;;;;;;;5056662;28;20220;-58
2023/04/13 10:06:47;;;;;;;3.23;2.23;;;;;;;;;;5067448;28;20172;-56
2023/04/13 10:09:14;;;;;;;4.43;2.20;;;;;;;;;;5051844;28;20493;-57
2023/04/13 10:11:49;;;;;;;7.43;2.47;;;;;;;;;;5063803;28;20207;-57
2023/04/13 10:14:18;;;;;;;5.23;2.13;;;;;;;;;;5054111;28;20178;-57
2023/04/13 10:17:07;;;;;;;4.27;1.70;;;;;;;;;;5056840;28;20224;-57
2023/04/13 10:19:43;;;;;;;4.03;1.90;;;;;;;;;;5044989;28;20269;-57
2023/04/13 10:22:10;;;;;;;2.03;1.70;;;;;;;;;;5044350;28;20313;-57
2023/04/13 10:24:39;;;;;;;2.43;1.80;;;;;;;;;;5051382;28;20346;-57
2023/04/13 10:27:21;;;;;;;6.90;2.83;;;;;;;;;;5063001;28;20172;-57
2023/04/13 10:29:48;;;;;;;2.67;2.00;;;;;;;;;;5057637;28;20173;-58
2023/04/13 10:32:25;;;;;;;4.93;1.70;;;;;;;;;;5061061;28;20173;-57
2023/04/13 10:34:52;;;;;;;4.03;1.80;;;;;;;;;;5055314;28;20171;-57
2023/04/13 10:37:20;;;;;;;4.73;1.90;;;;;;;;;;5059752;28;20309;-57
2023/04/13 10:39:47;;;;;;;2.17;1.77;;;;;;;;;;5056948;28;20191;-57
2023/04/13 10:42:14;;;;;;;3.67;1.90;;;;;;;;;;5054001;28;20180;-58
2023/04/13 10:44:42;;;;;;;7.33;2.43;;;;;;;;;;5057950;28;20211;-56
2023/04/13 10:47:09;;;;;;;6.47;1.93;;;;;;;;;;5066283;28;20173;-57
2023/04/13 10:49:36;;;;;;;4.10;2.60;;;;;;;;;;5062693;28;20796;-57
2023/04/13 10:52:02;;;;;;;3.90;2.13;;;;;;;;;;5060717;28;20644;-58
2023/04/13 10:54:29;;;;;;;5.37;2.10;;;;;;;;;;5060832;28;20202;-58
2023/04/13 10:57:01;;;;;;;3.20;2.17;;;;;;;;;;5061746;28;20254;-57
2023/04/13 10:59:38;;;;;;;20.10;13.47;;;;;;;;;;5055410;28;20181;-58
2023/04/13 11:02:13;;;;;;;10.27;6.63;;;;;;;;;;5059572;28;20210;-57
2023/04/13 11:04:43;;;;;;;8.93;5.13;;;;;;;;;;5055714;28;20191;-56
2023/04/13 11:07:15;;;;;;;12.80;9.47;;;;;;;;;;5062876;28;20180;-56
2023/04/13 11:09:51;;;;;;;16.40;10.77;;;;;;;;;;5055005;28;20177;-56
2023/04/13 11:12:18;;;;;;;12.80;10.50;;;;;;;;;;5052565;28;20879;-56
2023/04/13 11:14:51;;;;;;;12.77;7.97;;;;;;;;;;5035721;28;20679;-57
2023/04/13 11:17:18;;;;;;;11.50;7.33;;;;;;;;;;5057172;28;20199;-57
2023/04/13 11:19:51;;;;;;;9.60;5.97;;;;;;;;;;5058726;28;20267;-56
2023/04/13 11:22:18;;;;;;;10.03;4.90;;;;;;;;;;5060280;28;20224;-57
2023/04/13 11:24:47;;;;;;;7.90;4.77;;;;;;;;;;5063634;28;20552;-57
2023/04/13 11:27:18;;;;;;;8.57;4.30;;;;;;;;;;5060051;28;20168;-57
2023/04/13 11:29:44;;;;;;;9.00;4.57;;;;;;;;;;5062661;28;20271;-57
2023/04/13 11:32:17;;;;;;;7.90;4.00;;;;;;;;;;5057023;28;20179;-57
2023/04/13 11:34:43;;;;;;;7.60;3.93;;;;;;;;;;5055605;28;20322;-57
2023/04/13 11:37:10;;;;;;;6.80;3.43;;;;;;;;;;5060412;28;20168;-57
2023/04/13 11:39:38;;;;;;;7.43;4.03;;;;;;;;;;5054968;28;20181;-57
2023/04/13 11:42:05;;;;;;;10.87;3.30;;;;;;;;;;5052163;28;20176;-56
2023/04/13 11:44:34;;;;;;;4.80;3.20;;;;;;;;;;5043219;28;20196;-58
2023/04/13 11:47:02;;;;;;;8.13;3.43;;;;;;;;;;5060168;28;20288;-57
2023/04/13 11:49:28;;;;;;;6.60;2.70;;;;;;;;;;5065494;28;20172;-57
2023/04/13 11:51:55;;;;;;;6.27;2.83;;;;;;;;;;5068520;28;20180;-57
2023/04/13 11:54:22;;;;;;;5.23;2.73;;;;;;;;;;5051644;28;20191;-57
2023/04/13 11:56:49;;;;;;;6.23;2.63;;;;;;;;;;5064319;28;20212;-56
2023/04/13 11:59:15;;;;;;;5.27;2.77;;;;;;;;;;5058266;28;22158;-56
2023/04/13 12:01:48;;;;;;;2.73;2.40;;;;;;;;;;5060141;28;20277;-56
2023/04/13 12:04:15;;;;;;;6.67;4.67;;;;;;;;;;5056013;28;20224;-56
2023/04/13 12:06:43;;;;;;;4.20;2.50;;;;;;;;;;5064898;28;20514;-56
2023/04/13 12:09:09;;;;;;;5.00;2.20;;;;;;;;;;5064445;28;20541;-57
2023/04/13 12:11:37;;;;;;;3.10;2.00;;;;;;;;;;5062622;28;20737;-58
2023/04/13 12:14:03;;;;;;;3.90;1.97;;;;;;;;;;5065909;28;20180;-56
2023/04/13 12:16:32;;;;;;;5.23;2.60;;;;;;;;;;5061930;28;20222;-56
2023/04/13 12:19:05;;;;;;;8.33;2.50;;;;;;;;;;5061446;28;20194;-56
2023/04/13 12:21:32;;;;;;;5.63;1.90;;;;;;;;;;5056341;28;20414;-56
2023/04/13 12:23:59;;;;;;;6.00;2.40;;;;;;;;;;5060564;28;20227;-56
2023/04/13 12:26:33;;;;;;;4.60;2.30;;;;;;;;;;5056942;28;20264;-57
2023/04/13 12:29:05;;;;;;;4.07;2.17;;;;;;;;;;5032549;28;20245;-56
2023/04/13 12:31:35;;;;;;;6.03;2.43;;;;;;;;;;5057663;28;20259;-56
2023/04/13 12:34:02;;;;;;;4.30;2.20;;;;;;;;;;5057695;28;20613;-56
2023/04/13 12:36:30;;;;;;;4.10;2.50;;;;;;;;;;5061930;28;20173;-56
2023/04/13 12:38:59;;;;;;;6.63;2.83;;;;;;;;;;5060441;28;20215;-56
2023/04/13 12:41:26;;;;;;;2.80;2.10;;;;;;;;;;5058072;28;20207;-56
2023/04/13 12:43:53;;;;;;;6.10;2.67;;;;;;;;;;5062227;28;20723;-56
2023/04/13 12:46:19;;;;;;;4.70;2.00;;;;;;;;;;5061347;28;20196;-56
2023/04/13 12:48:46;;;;;;;3.77;2.40;;;;;;;;;;5062112;28;20255;-56
2023/04/13 12:51:15;;;;;;;8.10;2.97;;;;;;;;;;5065294;28;20180;-56
2023/04/13 12:53:42;;;;;;;7.03;2.80;;;;;;;;;;5057511;28;20649;-56
2023/04/13 12:56:08;;;;;;;5.90;2.90;;;;;;;;;;5029510;28;20672;-56
2023/04/13 12:58:35;;;;;;;4.63;2.70;;;;;;;;;;5059221;28;20219;-57
2023/04/13 13:01:02;;;;;;;5.87;2.37;;;;;;;;;;5066536;28;20268;-56
2023/04/13 13:03:31;;;;;;;5.23;2.30;;;;;;;;;;5033282;28;20679;-56
2023/04/13 13:05:58;;;;;;;3.23;2.40;;;;;;;;;;5047369;28;20191;-56
2023/04/13 13:08:25;;;;;;;3.93;2.10;;;;;;;;;;5058089;28;20302;-57
2023/04/13 13:10:51;;;;;;;3.90;2.30;;;;;;;;;;5063244;28;20176;-57
2023/04/13 13:13:21;;;;;;;7.00;2.47;;;;;;;;;;5058945;28;20199;-57
2023/04/13 13:15:48;;;;;;;4.07;2.20;;;;;;;;;;5061898;28;20199;-56
2023/04/13 13:18:14;;;;;;;4.17;2.80;;;;;;;;;;5066126;28;20711;-56
2023/04/13 13:20:41;;;;;;;4.83;2.20;;;;;;;;;;5043828;28;20173;-57
2023/04/13 13:23:11;;;;;;;10.50;2.10;;;;;;;;;;5054450;28;20204;-56
2023/04/13 13:25:39;;;;;;;3.67;2.10;;;;;;;;;;5057118;28;20508;-58
2023/04/13 13:28:07;;;;;;;8.90;3.67;;;;;;;;;;5059961;28;20568;-57
2023/04/13 13:33:37;;;;;;;4.87;2.33;;;;;;;;;;5062874;28;20239;-56
2023/04/13 13:36:03;;;;;;;3.43;2.17;;;;;;;;;;5057347;28;20177;-57
2023/04/13 13:38:29;;;;;;;4.93;2.47;;;;;;;;;;5057299;28;20640;-57
2023/04/13 13:40:56;;;;;;;4.53;2.13;;;;;;;;;;5056482;28;21667;-57
2023/04/13 13:43:22;;;;;;;7.43;2.30;;;;;;;;;;5060391;28;20725;-57
2023/04/13 13:45:49;;;;;;;4.27;2.03;;;;;;;;;;5060678;28;20568;-57
2023/04/13 13:48:15;;;;;;;5.23;2.37;;;;;;;;;;5063091;28;20187;-57
2023/04/13 13:50:41;;;;;;;3.50;2.40;;;;;;;;;;5055115;28;20623;-56
2023/04/13 13:53:08;;;;;;;3.30;2.20;;;;;;;;;;5062126;28;20168;-57
2023/04/13 13:55:34;;;;;;;4.77;2.10;;;;;;;;;;5058441;28;20263;-57
2023/04/13 13:58:03;;;;;;;4.23;2.70;;;;;;;;;;5055728;28;20180;-57
2023/04/13 14:00:30;;;;;;;6.90;2.13;;;;;;;;;;5060068;28;20785;-58
2023/04/13 14:02:56;;;;;;;6.23;2.37;;;;;;;;;;5062080;28;20651;-56
2023/04/13 14:05:23;;;;;;;4.73;2.30;;;;;;;;;;5057846;28;20239;-56
2023/04/13 14:07:50;;;;;;;4.20;1.80;;;;;;;;;;5054716;28;20172;-56
2023/04/13 14:10:16;;;;;;;4.70;3.10;;;;;;;;;;5033609;28;20248;-56
2023/04/13 14:12:44;;;;;;;5.03;2.30;;;;;;;;;;5063005;28;20197;-56
2023/04/13 14:15:11;;;;;;;4.00;2.33;;;;;;;;;;5063008;28;20189;-57
2023/04/13 14:17:37;;;;;;;7.27;2.67;;;;;;;;;;5058070;28;20261;-56
2023/04/13 14:20:13;;;;;;;3.70;2.10;;;;;;;;;;5055928;28;20186;-57
2023/04/13 14:22:40;;;;;;;8.47;2.70;;;;;;;;;;5056049;28;20255;-55
2023/04/13 14:25:09;;;;;;;5.93;3.13;;;;;;;;;;5038425;28;20231;-56
2023/04/13 14:27:35;;;;;;;5.15;2.35;;;;;;;;;;5062150;28;20429;-56
2023/04/13 14:30:03;;;;;;;5.90;2.93;;;;;;;;;;5062208;28;20197;-56
2023/04/13 14:32:29;;;;;;;4.10;2.40;;;;;;;;;;5044277;28;20180;-56
2023/04/13 14:34:57;;;;;;;9.93;2.83;;;;;;;;;;5061550;28;20189;-56
2023/04/13 14:37:23;;;;;;;4.43;2.37;;;;;;;;;;5057904;28;20363;-57
2023/04/13 14:39:51;;;;;;;3.83;2.20;;;;;;;;;;5055887;28;20187;-56
2023/04/13 14:42:18;;;;;;;4.77;1.90;;;;;;;;;;5055213;28;20709;-56
2023/04/13 14:44:44;;;;;;;3.87;2.10;;;;;;;;;;5040668;28;20578;-56
2023/04/13 14:47:11;;;;;;;4.07;2.00;;;;;;;;;;5045686;28;20213;-56
2023/04/13 14:49:37;;;;;;;3.27;2.20;;;;;;;;;;5035783;28;20216;-56